createdAt,value
2018-05-04T00:00:21.879Z,7.17
2018-05-04T00:02:51.042Z,6.13
2018-05-04T00:05:20.252Z,5.97
2018-05-04T00:07:49.355Z,6.10
2018-05-04T00:10:18.447Z,7.13
2018-05-04T00:12:47.569Z,5.50
2018-05-04T00:15:17.611Z,6.40
2018-05-04T00:17:46.730Z,5.83
2018-05-04T00:20:15.896Z,5.73
2018-05-04T00:22:44.987Z,6.40
2018-05-04T00:25:14.083Z,6.73
2018-05-04T00:27:43.200Z,6.90
2018-05-04T00:30:12.413Z,7.00
2018-05-04T00:32:41.521Z,6.70
2018-05-04T00:35:10.616Z,7.20
2018-05-04T00:37:39.800Z,5.90
2018-05-04T00:40:08.897Z,6.63
2018-05-04T00:42:38.086Z,7.70
2018-05-04T00:45:07.182Z,6.10
2018-05-04T00:47:36.298Z,6.87
2018-05-04T00:50:05.460Z,7.43
2018-05-04T00:52:34.650Z,7.27
2018-05-04T00:55:03.760Z,8.23
2018-05-04T00:57:32.950Z,7.40
2018-05-04T01:00:02.065Z,8.40
2018-05-04T01:02:31.258Z,7.93
2018-05-04T01:05:00.372Z,7.10
2018-05-04T01:07:29.531Z,7.30
2018-05-04T01:09:58.625Z,7.33
2018-05-04T01:12:27.729Z,7.37
2018-05-04T01:14:56.843Z,8.00
2018-05-04T01:17:25.946Z,8.30
2018-05-04T01:19:55.121Z,8.07
2018-05-04T01:22:24.313Z,8.83
2018-05-04T01:24:53.406Z,7.47
2018-05-04T01:27:22.542Z,8.57
2018-05-04T01:29:51.698Z,8.80
2018-05-04T01:32:20.863Z,7.60
2018-05-04T01:34:49.955Z,7.70
2018-05-04T01:37:19.064Z,7.27
2018-05-04T01:39:48.167Z,9.10
2018-05-04T01:42:17.249Z,7.70
2018-05-04T01:44:46.464Z,7.57
2018-05-04T01:47:15.545Z,7.83
2018-05-04T01:49:44.641Z,8.33
2018-05-04T01:52:13.833Z,8.20
2018-05-04T01:54:42.917Z,8.13
2018-05-04T01:57:12.113Z,9.17
2018-05-04T01:59:43.149Z,8.30
2018-05-04T02:02:12.458Z,8.03
2018-05-04T02:04:43.479Z,8.17
2018-05-04T02:07:12.585Z,7.50
2018-05-04T02:09:42.678Z,8.30
2018-05-04T02:12:11.803Z,8.67
2018-05-04T02:14:41.031Z,10.30
2018-05-04T02:17:10.197Z,9.60
2018-05-04T02:19:39.401Z,8.73
2018-05-04T02:22:08.597Z,9.50
2018-05-04T02:24:37.782Z,9.50
2018-05-04T02:27:06.885Z,9.20
2018-05-04T02:29:36.013Z,8.20
2018-05-04T02:32:05.178Z,8.50
2018-05-04T02:34:34.288Z,8.73
2018-05-04T02:37:03.401Z,9.63
2018-05-04T02:39:32.517Z,8.53
2018-05-04T02:42:01.630Z,8.57
2018-05-04T02:44:30.738Z,9.20
2018-05-04T02:46:59.950Z,9.67
2018-05-04T02:49:29.106Z,10.10
2018-05-04T02:51:58.233Z,9.43
2018-05-04T02:54:27.322Z,9.97
2018-05-04T02:56:56.510Z,9.53
2018-05-04T02:59:25.627Z,8.33
2018-05-04T03:01:54.752Z,10.33
2018-05-04T03:04:23.841Z,10.07
2018-05-04T03:06:53.014Z,9.07
2018-05-04T03:09:22.121Z,9.30
2018-05-04T03:11:51.267Z,9.70
2018-05-04T03:14:20.402Z,11.03
2018-05-04T03:16:50.412Z,9.23
2018-05-04T03:19:19.516Z,9.80
2018-05-04T03:21:48.617Z,9.67
2018-05-04T03:24:17.782Z,10.17
2018-05-04T03:26:46.894Z,9.17
2018-05-04T03:29:16.018Z,11.23
2018-05-04T03:31:45.414Z,9.90
2018-05-04T03:34:14.515Z,9.50
2018-05-04T03:36:43.648Z,10.53
2018-05-04T03:39:12.866Z,11.30
2018-05-04T03:41:41.950Z,9.97
2018-05-04T03:44:11.131Z,10.23
2018-05-04T03:46:40.235Z,11.57
2018-05-04T03:49:09.426Z,9.83
2018-05-04T03:51:38.782Z,10.27
2018-05-04T03:54:07.949Z,11.47
2018-05-04T03:56:37.061Z,9.43
2018-05-04T03:59:12.040Z,10.00
2018-05-04T04:01:47.294Z,9.63
2018-05-04T04:04:16.409Z,9.30
2018-05-04T04:06:45.593Z,10.53
2018-05-04T04:09:14.773Z,10.33
2018-05-04T04:11:43.905Z,10.90
2018-05-04T04:14:12.986Z,11.23
2018-05-04T04:16:42.176Z,9.07
2018-05-04T04:19:11.348Z,12.30
2018-05-04T04:21:40.476Z,11.00
2018-05-04T04:24:09.593Z,12.47
2018-05-04T04:26:38.710Z,12.57
2018-05-04T04:29:07.959Z,11.47
2018-05-04T04:31:37.057Z,12.13
2018-05-04T04:34:06.226Z,11.20
2018-05-04T04:36:35.332Z,11.03
2018-05-04T04:39:04.453Z,10.90
2018-05-04T04:41:34.553Z,10.30
2018-05-04T04:44:03.693Z,11.57
2018-05-04T04:46:32.799Z,12.03
2018-05-04T04:49:02.005Z,10.30
2018-05-04T04:51:31.145Z,12.53
2018-05-04T04:54:00.236Z,12.03
2018-05-04T04:56:29.401Z,11.87
2018-05-04T04:58:58.597Z,10.70
2018-05-04T05:01:27.707Z,11.17
2018-05-04T05:03:56.805Z,10.93
2018-05-04T05:06:25.918Z,11.07
2018-05-04T05:08:55.079Z,10.87
2018-05-04T05:11:24.326Z,9.60
2018-05-04T05:13:53.478Z,10.03
2018-05-04T05:16:22.613Z,8.70
2018-05-04T05:18:50.942Z,8.40
2018-05-04T05:21:18.372Z,9.70
2018-05-04T05:23:45.950Z,8.47
2018-05-04T05:26:14.074Z,8.47
2018-05-04T05:28:41.537Z,7.80
2018-05-04T05:31:10.019Z,7.57
2018-05-04T05:33:37.589Z,8.73
2018-05-04T05:36:05.079Z,7.73
2018-05-04T05:38:32.621Z,8.50
2018-05-04T05:41:00.220Z,7.20
2018-05-04T05:43:28.431Z,7.73
2018-05-04T05:45:55.900Z,8.30
2018-05-04T05:48:23.325Z,8.80
2018-05-04T05:50:50.837Z,7.00
2018-05-04T05:53:19.057Z,8.83
2018-05-04T05:55:46.505Z,8.33
2018-05-04T05:58:13.990Z,6.63
2018-05-04T06:00:41.543Z,7.37
2018-05-04T06:03:09.133Z,7.77
2018-05-04T06:05:36.580Z,7.10
2018-05-04T06:08:04.117Z,7.73
2018-05-04T06:10:31.703Z,8.00
2018-05-04T06:12:59.227Z,7.30
2018-05-04T06:15:26.799Z,7.23
2018-05-04T06:17:54.241Z,8.00
2018-05-04T06:20:21.703Z,7.90
2018-05-04T06:22:49.258Z,7.97
2018-05-04T06:25:16.725Z,7.27
2018-05-04T06:27:44.295Z,7.20
2018-05-04T06:30:11.761Z,8.07
2018-05-04T06:32:39.286Z,7.77
2018-05-04T06:35:06.830Z,7.77
2018-05-04T06:37:34.417Z,7.80
2018-05-04T06:40:01.863Z,7.70
2018-05-04T06:42:29.418Z,8.30
2018-05-04T06:44:56.864Z,7.70
2018-05-04T06:47:25.298Z,8.60
2018-05-04T06:49:53.621Z,9.23
2018-05-04T06:52:21.077Z,8.80
2018-05-04T06:54:48.637Z,8.40
2018-05-04T06:57:16.116Z,8.20
2018-05-04T06:59:43.653Z,8.50
2018-05-04T07:02:11.107Z,8.70
2018-05-04T07:04:38.559Z,7.97
2018-05-04T07:07:07.042Z,8.20
2018-05-04T07:09:34.500Z,8.10
2018-05-04T07:12:01.955Z,8.60
2018-05-04T07:14:29.526Z,7.50
2018-05-04T07:16:57.081Z,8.60
2018-05-04T07:19:24.529Z,8.30
2018-05-04T07:21:52.126Z,8.70
2018-05-04T07:24:20.338Z,8.53
2018-05-04T07:26:48.027Z,8.87
2018-05-04T07:29:15.470Z,7.77
2018-05-04T07:31:43.879Z,8.50
2018-05-04T07:34:13.535Z,8.87
2018-05-04T07:36:41.116Z,8.07
2018-05-04T07:39:08.575Z,8.60
2018-05-04T07:41:36.055Z,7.90
2018-05-04T07:44:03.635Z,8.27
2018-05-04T07:46:31.845Z,8.13
2018-05-04T07:48:59.438Z,8.13
2018-05-04T07:51:26.976Z,8.20
2018-05-04T07:53:54.442Z,8.30
2018-05-04T07:56:33.982Z,8.10
2018-05-04T07:59:02.120Z,8.50
2018-05-04T08:01:29.927Z,8.33
2018-05-04T08:03:58.476Z,7.67
2018-05-04T08:06:26.784Z,7.20
2018-05-04T08:08:54.255Z,8.83
2018-05-04T08:11:22.467Z,7.50
2018-05-04T08:13:50.023Z,7.23
2018-05-04T08:16:17.609Z,7.60
2018-05-04T08:18:45.173Z,7.30
2018-05-04T08:21:12.639Z,7.80
2018-05-04T08:23:40.134Z,8.23
2018-05-04T08:26:08.643Z,7.27
2018-05-04T08:28:36.093Z,8.20
2018-05-04T08:31:03.714Z,7.53
2018-05-04T08:33:31.950Z,7.27
2018-05-04T08:35:59.404Z,7.30
2018-05-04T08:38:26.863Z,6.93
2018-05-04T08:40:54.422Z,8.17
2018-05-04T08:43:21.773Z,7.33
2018-05-04T08:45:49.234Z,6.53
2018-05-04T08:48:16.751Z,8.43
2018-05-04T08:50:46.901Z,8.00
2018-05-04T08:53:14.363Z,7.30
2018-05-04T08:55:41.940Z,6.63
2018-05-04T08:58:09.396Z,6.50
2018-05-04T09:00:37.149Z,6.77
2018-05-04T09:03:05.379Z,6.37
2018-05-04T09:05:33.959Z,6.50
2018-05-04T09:08:02.976Z,6.80
2018-05-04T09:10:30.451Z,7.00
2018-05-04T09:12:58.004Z,6.80
2018-05-04T09:15:25.489Z,7.10
2018-05-04T09:17:53.413Z,6.77
2018-05-04T09:20:21.926Z,7.33
2018-05-04T09:22:50.173Z,6.37
2018-05-04T09:25:17.811Z,7.60
2018-05-04T09:27:45.291Z,7.33
2018-05-04T09:30:12.845Z,7.90
2018-05-04T09:32:40.530Z,8.03
2018-05-04T09:35:09.907Z,7.80
2018-05-04T09:37:37.410Z,7.27
2018-05-04T09:40:05.789Z,7.00
2018-05-04T09:42:33.298Z,6.70
2018-05-04T09:45:00.826Z,5.53
2018-05-04T09:47:29.446Z,7.03
2018-05-04T09:49:56.901Z,6.83
2018-05-04T09:52:25.341Z,6.90
2018-05-04T09:54:52.940Z,6.23
2018-05-04T09:57:20.437Z,7.10
2018-05-04T09:59:48.662Z,8.10
2018-05-04T10:02:16.123Z,7.20
2018-05-04T10:04:45.073Z,7.13
2018-05-04T10:07:12.570Z,7.00
2018-05-04T10:09:40.030Z,8.17
2018-05-04T10:12:07.460Z,8.37
2018-05-04T10:14:34.918Z,6.80
2018-05-04T10:17:02.561Z,6.63
2018-05-04T10:19:30.034Z,6.67
2018-05-04T10:21:57.634Z,6.50
2018-05-04T10:24:25.098Z,7.27
2018-05-04T10:26:53.307Z,6.47
2018-05-04T10:29:20.782Z,6.87
2018-05-04T10:31:48.230Z,7.60
2018-05-04T10:34:16.695Z,7.97
2018-05-04T10:36:46.317Z,7.57
2018-05-04T10:39:13.810Z,6.90
2018-05-04T10:41:41.340Z,7.00
2018-05-04T10:44:08.813Z,6.53
2018-05-04T10:46:36.357Z,6.67
2018-05-04T10:49:03.918Z,7.33
2018-05-04T10:51:31.362Z,7.53
2018-05-04T10:53:58.957Z,7.10
2018-05-04T10:56:27.190Z,7.27
2018-05-04T10:58:54.673Z,7.50
2018-05-04T11:01:22.135Z,6.80
2018-05-04T11:03:49.569Z,7.50
2018-05-04T11:06:18.045Z,7.33
2018-05-04T11:08:45.535Z,7.30
2018-05-04T11:11:13.778Z,6.63
2018-05-04T11:13:41.328Z,6.87
2018-05-04T11:16:08.918Z,6.90
2018-05-04T11:18:37.129Z,7.20
2018-05-04T11:21:04.600Z,6.47
2018-05-04T11:23:32.090Z,6.30
2018-05-04T11:25:59.538Z,7.30
2018-05-04T11:28:27.113Z,7.90
2018-05-04T11:30:54.620Z,7.80
2018-05-04T11:33:22.798Z,6.90
2018-05-04T11:35:50.262Z,7.03
2018-05-04T11:38:17.711Z,5.80
2018-05-04T11:40:45.173Z,7.30
2018-05-04T11:43:12.629Z,6.87
2018-05-04T11:45:40.200Z,6.60
2018-05-04T11:48:07.655Z,6.80
2018-05-04T11:50:35.125Z,5.53
2018-05-04T11:53:02.615Z,6.60
2018-05-04T11:55:30.948Z,6.13
2018-05-04T11:57:58.391Z,6.80
2018-05-04T12:00:25.874Z,6.10
2018-05-04T12:02:53.319Z,5.77
2018-05-04T12:05:20.897Z,7.13
2018-05-04T12:07:49.661Z,6.50
2018-05-04T12:10:18.839Z,6.80
2018-05-04T12:12:46.278Z,7.20
2018-05-04T12:15:13.719Z,7.37
2018-05-04T12:17:41.234Z,7.43
2018-05-04T12:20:08.698Z,7.80
2018-05-04T12:22:36.246Z,7.40
2018-05-04T12:25:03.715Z,8.27
2018-05-04T12:27:31.200Z,8.27
2018-05-04T12:29:59.662Z,8.30
2018-05-04T12:32:27.874Z,7.53
2018-05-04T12:34:55.314Z,7.00
2018-05-04T12:37:22.861Z,7.87
2018-05-04T12:39:51.084Z,6.97
2018-05-04T12:42:18.554Z,7.60
2018-05-04T12:44:46.099Z,7.63
2018-05-04T12:47:13.569Z,7.83
2018-05-04T12:49:41.105Z,7.20
2018-05-04T12:52:08.673Z,7.50
2018-05-04T12:54:36.130Z,6.67
2018-05-04T12:57:03.688Z,6.57
2018-05-04T12:59:31.138Z,6.13
2018-05-04T13:01:58.582Z,6.67
2018-05-04T13:04:26.134Z,6.80
2018-05-04T13:06:53.490Z,8.13
2018-05-04T13:09:20.952Z,7.07
2018-05-04T13:11:48.410Z,7.00
2018-05-04T13:14:15.873Z,7.07
2018-05-04T13:16:43.346Z,7.03
2018-05-04T13:19:10.879Z,7.60
2018-05-04T13:21:38.422Z,6.83
2018-05-04T13:24:05.873Z,7.53
2018-05-04T13:26:33.342Z,7.07
2018-05-04T13:29:00.901Z,8.07
2018-05-04T13:31:28.357Z,7.40
2018-05-04T13:33:55.841Z,7.70
2018-05-04T13:36:23.409Z,8.30
2018-05-04T13:38:51.678Z,7.27
2018-05-04T13:41:19.413Z,8.20
2018-05-04T13:43:46.839Z,8.60
2018-05-04T13:46:14.320Z,8.03
2018-05-04T13:48:41.898Z,7.87
2018-05-04T13:51:11.443Z,8.17
2018-05-04T13:53:39.650Z,8.03
2018-05-04T13:56:07.114Z,7.20
2018-05-04T13:58:34.576Z,7.97
2018-05-04T14:01:02.120Z,7.50
2018-05-04T14:03:29.571Z,8.47
2018-05-04T14:05:57.140Z,6.70
2018-05-04T14:08:24.613Z,8.30
2018-05-04T14:10:52.050Z,7.30
2018-05-04T14:13:19.607Z,7.60
2018-05-04T14:15:49.102Z,7.73
2018-05-04T14:18:16.537Z,8.67
2018-05-04T14:20:44.018Z,7.83
2018-05-04T14:23:12.506Z,6.70
2018-05-04T14:25:39.951Z,7.33
2018-05-04T14:28:07.398Z,7.70
2018-05-04T14:30:34.879Z,7.37
2018-05-04T14:33:04.757Z,7.00
2018-05-04T14:35:32.218Z,7.33
2018-05-04T14:37:59.752Z,7.00
2018-05-04T14:40:27.978Z,7.80
2018-05-04T14:42:55.464Z,6.77
2018-05-04T14:45:22.878Z,7.20
2018-05-04T14:47:50.333Z,8.10
2018-05-04T14:50:17.798Z,6.83
2018-05-04T14:52:46.268Z,7.20
2018-05-04T14:55:14.674Z,7.40
2018-05-04T14:57:42.144Z,7.17
2018-05-04T15:00:10.364Z,7.60
2018-05-04T15:02:37.834Z,7.30
2018-05-04T15:05:05.405Z,6.30
2018-05-04T15:07:32.893Z,6.53
2018-05-04T15:10:01.102Z,7.03
2018-05-04T15:12:28.565Z,6.70
2018-05-04T15:14:56.052Z,6.87
2018-05-04T15:17:23.479Z,7.80
2018-05-04T15:19:50.941Z,7.17
2018-05-04T15:22:18.406Z,6.87
2018-05-04T15:24:45.873Z,6.97
2018-05-04T15:27:13.338Z,7.87
2018-05-04T15:29:41.579Z,8.33
2018-05-04T15:32:09.046Z,6.80
2018-05-04T15:34:37.531Z,8.20
2018-05-04T15:37:05.797Z,7.30
2018-05-04T15:39:33.255Z,7.00
2018-05-04T15:42:00.805Z,8.60
2018-05-04T15:44:28.257Z,7.10
2018-05-04T15:46:55.721Z,7.27
2018-05-04T15:49:23.994Z,7.60
2018-05-04T15:51:57.171Z,6.93
2018-05-04T15:54:24.634Z,8.40
2018-05-04T15:56:52.095Z,7.53
2018-05-04T15:59:19.562Z,8.33
2018-05-04T16:01:47.359Z,7.70
2018-05-04T16:04:14.857Z,7.23
2018-05-04T16:06:42.310Z,7.17
2018-05-04T16:09:09.760Z,7.87
2018-05-04T16:11:37.233Z,7.60
2018-05-04T16:14:04.743Z,8.23
2018-05-04T16:16:32.212Z,8.30
2018-05-04T16:18:59.742Z,8.27
2018-05-04T16:21:27.974Z,7.47
2018-05-04T16:23:55.444Z,7.60
2018-05-04T16:26:23.030Z,7.70
2018-05-04T16:28:51.346Z,8.57
2018-05-04T16:31:18.822Z,8.57
2018-05-04T16:33:46.386Z,9.27
2018-05-04T16:36:13.837Z,8.83
2018-05-04T16:38:41.432Z,8.43
2018-05-04T16:41:09.674Z,8.80
2018-05-04T16:43:37.125Z,8.80
2018-05-04T16:46:04.600Z,8.80
2018-05-04T16:48:37.678Z,9.47
2018-05-04T16:51:05.231Z,8.00
2018-05-04T16:53:32.790Z,8.10
2018-05-04T16:56:00.297Z,8.87
2018-05-04T16:58:27.734Z,8.80
2018-05-04T17:00:55.962Z,8.63
2018-05-04T17:03:23.402Z,8.30
2018-05-04T17:05:50.872Z,9.37
2018-05-04T17:08:18.358Z,8.73
2018-05-04T17:10:45.838Z,9.40
2018-05-04T17:13:13.285Z,8.53
2018-05-04T17:15:41.489Z,8.47
2018-05-04T17:18:08.938Z,7.60
2018-05-04T17:20:36.412Z,8.43
2018-05-04T17:23:03.871Z,8.43
2018-05-04T17:25:31.314Z,9.00
2018-05-04T17:27:58.777Z,8.60
2018-05-04T17:30:26.269Z,8.47
2018-05-04T17:32:53.735Z,7.90
2018-05-04T17:35:21.273Z,8.13
2018-05-04T17:37:48.743Z,8.27
2018-05-04T17:40:17.189Z,7.33
2018-05-04T17:42:44.669Z,8.50
2018-05-04T17:45:12.120Z,8.10
2018-05-04T17:47:39.682Z,6.83
2018-05-04T17:50:07.139Z,7.33
2018-05-04T17:52:34.680Z,8.00
2018-05-04T17:55:02.207Z,8.30
2018-05-04T17:57:29.694Z,7.63
2018-05-04T17:59:57.149Z,8.13
2018-05-04T18:02:24.819Z,8.60
2018-05-04T18:04:52.272Z,7.67
2018-05-04T18:07:19.826Z,8.27
2018-05-04T18:09:47.270Z,9.40
2018-05-04T18:12:14.742Z,8.70
2018-05-04T18:14:42.598Z,8.20
2018-05-04T18:17:10.035Z,9.13
2018-05-04T18:19:37.553Z,7.73
2018-05-04T18:22:05.920Z,8.23
2018-05-04T18:24:33.445Z,9.33
2018-05-04T18:27:00.885Z,8.57
2018-05-04T18:29:28.354Z,8.13
2018-05-04T18:31:55.813Z,9.23
2018-05-04T18:34:24.297Z,7.37
2018-05-04T18:36:51.746Z,7.27
2018-05-04T18:39:19.203Z,7.90
2018-05-04T18:41:47.093Z,7.97
2018-05-04T18:44:14.571Z,8.30
2018-05-04T18:46:42.798Z,7.70
2018-05-04T18:49:10.254Z,8.83
2018-05-04T18:51:37.734Z,8.83
2018-05-04T18:54:05.174Z,7.97
2018-05-04T18:56:32.780Z,7.50
2018-05-04T18:59:00.290Z,7.73
2018-05-04T19:01:27.741Z,8.83
2018-05-04T19:03:55.304Z,8.90
2018-05-04T19:06:22.762Z,8.50
2018-05-04T19:08:50.305Z,7.97
2018-05-04T19:11:17.871Z,8.50
2018-05-04T19:13:45.338Z,8.87
2018-05-04T19:16:12.915Z,7.97
2018-05-04T19:18:41.327Z,8.00
2018-05-04T19:21:08.787Z,7.00
2018-05-04T19:23:37.187Z,8.53
2018-05-04T19:26:04.673Z,7.03
2018-05-04T19:28:32.138Z,7.77
2018-05-04T19:30:59.586Z,10.10
2018-05-04T19:33:28.004Z,8.10
2018-05-04T19:35:56.318Z,8.57
2018-05-04T19:38:23.783Z,8.27
2018-05-04T19:40:51.325Z,9.33
2018-05-04T19:43:18.894Z,8.67
2018-05-04T19:45:46.358Z,8.93
2018-05-04T19:48:13.817Z,9.00
2018-05-04T19:50:41.262Z,10.80
2018-05-04T19:53:08.750Z,9.23
2018-05-04T19:55:37.027Z,9.70
2018-05-04T19:58:05.298Z,10.57
2018-05-04T20:00:32.723Z,9.00
2018-05-04T20:03:00.181Z,9.40
2018-05-04T20:05:27.626Z,9.43
2018-05-04T20:07:55.360Z,8.80
2018-05-04T20:10:22.903Z,8.10
2018-05-04T20:12:50.280Z,9.73
2018-05-04T20:15:17.750Z,9.07
2018-05-04T20:17:45.238Z,8.20
2018-05-04T20:20:12.703Z,9.53
2018-05-04T20:22:41.063Z,10.40
2018-05-04T20:25:08.519Z,8.67
2018-05-04T20:27:37.074Z,8.70
2018-05-04T20:30:04.538Z,10.10
2018-05-04T20:32:32.112Z,9.20
2018-05-04T20:34:59.585Z,9.90
2018-05-04T20:37:28.743Z,9.60
2018-05-04T20:39:56.213Z,10.53
2018-05-04T20:42:23.693Z,10.60
2018-05-04T20:44:51.946Z,9.80
2018-05-04T20:47:19.484Z,10.00
2018-05-04T20:49:47.008Z,9.37
2018-05-04T20:52:14.381Z,9.80
2018-05-04T20:54:41.849Z,10.90
2018-05-04T20:57:09.410Z,10.30
2018-05-04T20:59:37.854Z,10.50
2018-05-04T21:02:05.333Z,9.87
2018-05-04T21:04:32.767Z,9.97
2018-05-04T21:07:01.131Z,11.33
2018-05-04T21:09:29.349Z,11.53
2018-05-04T21:11:56.908Z,11.30
2018-05-04T21:14:24.361Z,9.97
2018-05-04T21:16:51.822Z,11.47
2018-05-04T21:19:19.314Z,11.60
2018-05-04T21:21:47.565Z,10.60
2018-05-04T21:24:15.254Z,10.23
2018-05-04T21:26:43.543Z,11.37
2018-05-04T21:29:11.022Z,11.30
2018-05-04T21:31:38.478Z,10.67
2018-05-04T21:34:05.927Z,10.97
2018-05-04T21:36:33.383Z,11.47
2018-05-04T21:39:00.957Z,11.23
2018-05-04T21:41:28.361Z,12.90
2018-05-04T21:43:56.609Z,11.87
2018-05-04T21:46:24.097Z,11.60
2018-05-04T21:48:52.337Z,12.27
2018-05-04T21:51:19.817Z,12.83
2018-05-04T21:53:48.030Z,11.80
2018-05-04T21:56:15.551Z,11.70
2018-05-04T21:58:43.793Z,12.00
2018-05-04T22:01:11.258Z,11.20
2018-05-04T22:03:38.808Z,12.30
2018-05-04T22:06:07.064Z,12.30
2018-05-04T22:08:34.514Z,11.33
2018-05-04T22:11:01.975Z,11.67
2018-05-04T22:13:29.414Z,11.70
2018-05-04T22:15:56.889Z,11.67
2018-05-04T22:18:24.338Z,11.50
2018-05-04T22:20:51.801Z,11.57
2018-05-04T22:23:19.255Z,11.93
2018-05-04T22:25:46.725Z,12.63
2018-05-04T22:28:14.433Z,12.03
2018-05-04T22:30:41.930Z,12.70
2018-05-04T22:33:09.416Z,13.80
2018-05-04T22:35:36.868Z,12.23
2018-05-04T22:38:05.942Z,12.37
2018-05-04T22:40:33.382Z,12.63
2018-05-04T22:43:00.877Z,13.07
2018-05-04T22:45:28.338Z,13.13
2018-05-04T22:47:56.570Z,12.90
2018-05-04T22:50:24.014Z,11.67
2018-05-04T22:52:51.481Z,12.47
2018-05-04T22:55:18.944Z,12.60
2018-05-04T22:57:46.497Z,12.50
2018-05-04T23:00:24.323Z,12.83
2018-05-04T23:02:51.765Z,13.17
2018-05-04T23:05:19.219Z,13.70
2018-05-04T23:07:46.761Z,13.47
2018-05-04T23:10:14.215Z,14.20
2018-05-04T23:12:43.326Z,12.87
2018-05-04T23:15:12.536Z,13.80
2018-05-04T23:17:41.652Z,14.20
2018-05-04T23:20:10.816Z,12.97
2018-05-04T23:22:40.013Z,14.37
2018-05-04T23:25:09.133Z,14.67
2018-05-04T23:27:38.302Z,14.70
2018-05-04T23:30:07.401Z,13.30
2018-05-04T23:32:36.504Z,15.30
2018-05-04T23:35:05.638Z,14.43
2018-05-04T23:37:34.738Z,13.50
2018-05-04T23:40:03.870Z,14.40
2018-05-04T23:42:33.082Z,15.27
2018-05-04T23:45:02.265Z,14.40
2018-05-04T23:47:31.460Z,15.00
2018-05-04T23:50:00.653Z,14.77
2018-05-04T23:52:29.762Z,15.57
2018-05-04T23:54:58.869Z,15.33
2018-05-04T23:57:27.964Z,15.60
2018-05-04T23:59:57.084Z,15.03
